Main page
METAR-TAF:

METAR-TAF

Airports :

Sliač Airport

Banská Bystrica, Slovakia

latitude: 48-38-17N, longitude: 019-08-03E, elevation: 318 m

Current weather observation

The report was made 25 minutes ago, at 23:30 UTC
Calm wind
Temperature 16°C
Humidity 88%
Pressure 1014 hPa
Visibility 10 km or more
no clouds below 1500 m and no cumulonimbus

METAR: LZSL 202330Z 00000KT CAVOK 16/14 Q1014

Time: 01:55 (23:55 UTC)

Forecast

The report was made 55 minutes ago, at 23:00 UTC
Forecast valid from 21 at 00 UTC to 21 at 09 UTC
Wind 2 kt from variable directions
Visibility 10 km or more
no clouds below 1500 m and no cumulonimbus
Probability 40% :
Temporary
from 21 at 01 UTC to 21 at 05 UTC
Visibility: 4000 m
Scattered clouds at a height of 300 ft
Shallow fog

TAF: LZSL 202300Z 2100/2109 VRB02KT CAVOK PROB40 TEMPO 2101/2105 4000 MIFG SCT003

Weather observations and forecasts of more than 4000 airports (METAR and TAF reports).

The available stations are represented by yellow and red dots on the map.

Hover mouse over dot to see the name of the station.

Then click to see weather observations and forecasts.

To change the map : click on the green buttons with a black cross to zoom in, on the green button with a dash to zoom out, or on the green arrows for adjacent maps.


METAR-TAF: